sensor_id;sensor_type;location;lat;lon;timestamp;pressure;altitude;pressure_sealevel;temperature;humidity
71567;BME280;59403;47.456;19.120;2024-02-15T00:00:15;101000.44;;;5.51;100.00
71567;BME280;59403;47.456;19.120;2024-02-15T00:02:43;101004.66;;;5.53;100.00
71567;BME280;59403;47.456;19.120;2024-02-15T00:05:10;101006.31;;;5.54;100.00
71567;BME280;59403;47.456;19.120;2024-02-15T00:07:36;101004.66;;;5.53;100.00
71567;BME280;59403;47.456;19.120;2024-02-15T00:10:04;101003.81;;;5.53;100.00
71567;BME280;59403;47.456;19.120;2024-02-15T00:12:31;100996.03;;;5.51;100.00
71567;BME280;59403;47.456;19.120;2024-02-15T00:14:58;101001.81;;;5.56;100.00
71567;BME280;59403;47.456;19.120;2024-02-15T00:17:27;100996.44;;;5.58;100.00
71567;BME280;59403;47.456;19.120;2024-02-15T00:19:55;101007.78;;;5.58;100.00
71567;BME280;59403;47.456;19.120;2024-02-15T00:22:22;101004.13;;;5.61;100.00
71567;BME280;59403;47.456;19.120;2024-02-15T00:24:49;101004.13;;;5.61;100.00
71567;BME280;59403;47.456;19.120;2024-02-15T00:27:16;101007.13;;;5.67;100.00
71567;BME280;59403;47.456;19.120;2024-02-15T00:29:43;101008.69;;;5.70;100.00
71567;BME280;59403;47.456;19.120;2024-02-15T00:32:10;101004.16;;;5.72;100.00
71567;BME280;59403;47.456;19.120;2024-02-15T00:34:38;101014.66;;;5.72;100.00
71567;BME280;59403;47.456;19.120;2024-02-15T00:37:04;101009.28;;;5.73;100.00
71567;BME280;59403;47.456;19.120;2024-02-15T00:39:31;101007.63;;;5.72;100.00
71567;BME280;59403;47.456;19.120;2024-02-15T00:41:58;101005.12;;;5.71;100.00
71567;BME280;59403;47.456;19.120;2024-02-15T00:44:25;101007.75;;;5.71;100.00
71567;BME280;59403;47.456;19.120;2024-02-15T00:46:52;101005.22;;;5.69;100.00
71567;BME280;59403;47.456;19.120;2024-02-15T00:49:19;101013.00;;;5.71;100.00
71567;BME280;59403;47.456;19.120;2024-02-15T00:51:47;101014.78;;;5.70;100.00
71567;BME280;59403;47.456;19.120;2024-02-15T00:54:14;101017.41;;;5.70;100.00
71567;BME280;59403;47.456;19.120;2024-02-15T00:56:41;101020.78;;;5.72;100.00
71567;BME280;59403;47.456;19.120;2024-02-15T00:59:08;101019.91;;;5.72;100.00
71567;BME280;59403;47.456;19.120;2024-02-15T01:01:34;101015.50;;;5.72;100.00
71567;BME280;59403;47.456;19.120;2024-02-15T01:04:03;101014.78;;;5.70;100.00
71567;BME280;59403;47.456;19.120;2024-02-15T01:06:30;101012.03;;;5.72;100.00
71567;BME280;59403;47.456;19.120;2024-02-15T01:08:59;101016.47;;;5.71;100.00
71567;BME280;59403;47.456;19.120;2024-02-15T01:11:27;101020.03;;;5.70;100.00
71567;BME280;59403;47.456;19.120;2024-02-15T01:13:54;101013.94;;;5.70;100.00
71567;BME280;59403;47.456;19.120;2024-02-15T01:16:21;101017.53;;;5.69;100.00
71567;BME280;59403;47.456;19.120;2024-02-15T01:18:48;101018.38;;;5.69;100.00
71567;BME280;59403;47.456;19.120;2024-02-15T01:21:15;101021.00;;;5.69;100.00
71567;BME280;59403;47.456;19.120;2024-02-15T01:23:42;101019.19;;;5.70;100.00
71567;BME280;59403;47.456;19.120;2024-02-15T01:26:10;101016.69;;;5.68;100.00
71567;BME280;59403;47.456;19.120;2024-02-15T01:28:38;101021.00;;;5.69;100.00
71567;BME280;59403;47.456;19.120;2024-02-15T01:31:05;101022.66;;;5.70;100.00
71567;BME280;59403;47.456;19.120;2024-02-15T01:33:32;101013.13;;;5.69;100.00
71567;BME280;59403;47.456;19.120;2024-02-15T01:35:58;101013.22;;;5.68;100.00
71567;BME280;59403;47.456;19.120;2024-02-15T01:38:25;101025.41;;;5.69;100.00
71567;BME280;59403;47.456;19.120;2024-02-15T01:40:51;101011.41;;;5.68;100.00
71567;BME280;59403;47.456;19.120;2024-02-15T01:43:19;101011.41;;;5.68;100.00
71567;BME280;59403;47.456;19.120;2024-02-15T01:45:45;101010.50;;;5.69;100.00
71567;BME280;59403;47.456;19.120;2024-02-15T01:48:12;101007.00;;;5.69;100.00
71567;BME280;59403;47.456;19.120;2024-02-15T01:50:39;101011.31;;;5.70;100.00
71567;BME280;59403;47.456;19.120;2024-02-15T01:53:07;101007.88;;;5.69;100.00
71567;BME280;59403;47.456;19.120;2024-02-15T01:55:34;100999.03;;;5.70;100.00
71567;BME280;59403;47.456;19.120;2024-02-15T01:58:01;101005.97;;;5.71;100.00
71567;BME280;59403;47.456;19.120;2024-02-15T02:00:30;101006.06;;;5.70;100.00
71567;BME280;59403;47.456;19.120;2024-02-15T02:05:34;100997.13;;;5.72;100.00
71567;BME280;59403;47.456;19.120;2024-02-15T02:08:02;100999.75;;;5.72;100.00
71567;BME280;59403;47.456;19.120;2024-02-15T02:10:34;100998.09;;;5.71;100.00
71567;BME280;59403;47.456;19.120;2024-02-15T02:13:01;101000.72;;;5.71;100.00
71567;BME280;59403;47.456;19.120;2024-02-15T02:15:28;100998.16;;;5.70;100.00
71567;BME280;59403;47.456;19.120;2024-02-15T02:17:58;100992.91;;;5.70;100.00
71567;BME280;59403;47.456;19.120;2024-02-15T02:20:25;100984.34;;;5.68;100.00
71567;BME280;59403;47.456;19.120;2024-02-15T02:22:53;100986.00;;;5.69;100.00
71567;BME280;59403;47.456;19.120;2024-02-15T02:25:23;100985.87;;;5.70;100.00
71567;BME280;59403;47.456;19.120;2024-02-15T02:27:51;100988.50;;;5.70;100.00
71567;BME280;59403;47.456;19.120;2024-02-15T02:30:19;100981.59;;;5.69;100.00
71567;BME280;59403;47.456;19.120;2024-02-15T02:32:47;100985.03;;;5.70;100.00
71567;BME280;59403;47.456;19.120;2024-02-15T02:35:14;100979.78;;;5.70;100.00
71567;BME280;59403;47.456;19.120;2024-02-15T02:37:42;100982.53;;;5.68;100.00
71567;BME280;59403;47.456;19.120;2024-02-15T02:40:09;100978.97;;;5.69;100.00
71567;BME280;59403;47.456;19.120;2024-02-15T02:42:49;100974.75;;;5.67;100.00
71567;BME280;59403;47.456;19.120;2024-02-15T02:45:16;100970.47;;;5.66;100.00
71567;BME280;59403;47.456;19.120;2024-02-15T02:47:45;100980.97;;;5.66;100.00
71567;BME280;59403;47.456;19.120;2024-02-15T02:50:12;100979.28;;;5.65;100.00
71567;BME280;59403;47.456;19.120;2024-02-15T02:52:39;100973.28;;;5.63;100.00
71567;BME280;59403;47.456;19.120;2024-02-15T02:55:06;100980.34;;;5.62;100.00
71567;BME280;59403;47.456;19.120;2024-02-15T02:57:33;100979.72;;;5.59;100.00
71567;BME280;59403;47.456;19.120;2024-02-15T03:00:02;100980.78;;;5.56;100.00
71567;BME280;59403;47.456;19.120;2024-02-15T03:02:32;100983.63;;;5.53;100.00
71567;BME280;59403;47.456;19.120;2024-02-15T03:05:01;100981.84;;;5.54;100.00
71567;BME280;59403;47.456;19.120;2024-02-15T03:07:28;100983.63;;;5.53;100.00
71567;BME280;59403;47.456;19.120;2024-02-15T03:09:54;100988.91;;;5.53;100.00
71567;BME280;59403;47.456;19.120;2024-02-15T03:12:21;100983.63;;;5.53;100.00
71567;BME280;59403;47.456;19.120;2024-02-15T03:14:47;100980.91;;;5.55;100.00
71567;BME280;59403;47.456;19.120;2024-02-15T03:17:15;100983.75;;;5.52;100.00
71567;BME280;59403;47.456;19.120;2024-02-15T03:19:42;100988.03;;;5.53;100.00
71567;BME280;59403;47.456;19.120;2024-02-15T03:22:09;100986.37;;;5.52;100.00
71567;BME280;59403;47.456;19.120;2024-02-15T03:24:37;100996.03;;;5.51;100.00
71567;BME280;59403;47.456;19.120;2024-02-15T03:27:05;100997.00;;;5.50;100.00
71567;BME280;59403;47.456;19.120;2024-02-15T03:29:31;100994.38;;;5.50;100.00
71567;BME280;59403;47.456;19.120;2024-02-15T03:31:59;100999.75;;;5.49;100.00
71567;BME280;59403;47.456;19.120;2024-02-15T03:34:27;100990.91;;;5.50;100.00
71567;BME280;59403;47.456;19.120;2024-02-15T03:36:54;100987.53;;;5.48;100.00
71567;BME280;59403;47.456;19.120;2024-02-15T03:39:20;100985.87;;;5.47;100.00
71567;BME280;59403;47.456;19.120;2024-02-15T03:41:48;100990.41;;;5.45;100.00
71567;BME280;59403;47.456;19.120;2024-02-15T03:44:15;100992.16;;;5.44;100.00
71567;BME280;59403;47.456;19.120;2024-02-15T03:46:43;100989.87;;;5.40;100.00
71567;BME280;59403;47.456;19.120;2024-02-15T03:49:16;100994.06;;;5.42;100.00
71567;BME280;59403;47.456;19.120;2024-02-15T03:51:44;100993.25;;;5.42;100.00
71567;BME280;59403;47.456;19.120;2024-02-15T03:54:10;100992.16;;;5.44;100.00
71567;BME280;59403;47.456;19.120;2024-02-15T03:56:46;100990.41;;;5.45;100.00
71567;BME280;59403;47.456;19.120;2024-02-15T03:59:13;100990.41;;;5.45;100.00
71567;BME280;59403;47.456;19.120;2024-02-15T04:01:39;100985.13;;;5.45;100.00
71567;BME280;59403;47.456;19.120;2024-02-15T04:04:06;100992.06;;;5.46;100.00
71567;BME280;59403;47.456;19.120;2024-02-15T04:06:32;100991.94;;;5.47;100.00
71567;BME280;59403;47.456;19.120;2024-02-15T04:09:01;100996.28;;;5.48;100.00
71567;BME280;59403;47.456;19.120;2024-02-15T04:11:27;100996.28;;;5.48;100.00
71567;BME280;59403;47.456;19.120;2024-02-15T04:13:54;100985.75;;;5.48;100.00
71567;BME280;59403;47.456;19.120;2024-02-15T04:16:22;100993.63;;;5.48;100.00
71567;BME280;59403;47.456;19.120;2024-02-15T04:18:50;100991.88;;;5.49;100.00
71567;BME280;59403;47.456;19.120;2024-02-15T04:21:17;100991.75;;;5.50;100.00
71567;BME280;59403;47.456;19.120;2024-02-15T04:23:45;100983.97;;;5.49;100.00
71567;BME280;59403;47.456;19.120;2024-02-15T04:26:13;100987.44;;;5.49;100.00
71567;BME280;59403;47.456;19.120;2024-02-15T04:28:40;100983.97;;;5.49;100.00
71567;BME280;59403;47.456;19.120;2024-02-15T04:31:06;100986.59;;;5.49;100.00
71567;BME280;59403;47.456;19.120;2024-02-15T04:33:34;100987.44;;;5.49;100.00
71567;BME280;59403;47.456;19.120;2024-02-15T04:36:00;100983.97;;;5.49;100.00
71567;BME280;59403;47.456;19.120;2024-02-15T04:38:29;100977.88;;;5.48;100.00
71567;BME280;59403;47.456;19.120;2024-02-15T04:40:56;100976.09;;;5.49;100.00
71567;BME280;59403;47.456;19.120;2024-02-15T04:43:26;100978.72;;;5.49;100.00
71567;BME280;59403;47.456;19.120;2024-02-15T04:45:54;100976.00;;;5.50;100.00
71567;BME280;59403;47.456;19.120;2024-02-15T04:48:20;100982.91;;;5.51;100.00
71567;BME280;59403;47.456;19.120;2024-02-15T04:50:50;100982.91;;;5.51;100.00
71567;BME280;59403;47.456;19.120;2024-02-15T04:53:17;100983.03;;;5.50;100.00
71567;BME280;59403;47.456;19.120;2024-02-15T04:55:44;100980.41;;;5.50;100.00
71567;BME280;59403;47.456;19.120;2024-02-15T04:58:11;100989.13;;;5.50;100.00
71567;BME280;59403;47.456;19.120;2024-02-15T05:00:39;100991.75;;;5.50;100.00
71567;BME280;59403;47.456;19.120;2024-02-15T05:03:06;100989.94;;;5.51;100.00
71567;BME280;59403;47.456;19.120;2024-02-15T05:05:33;100993.53;;;5.50;100.00
71567;BME280;59403;47.456;19.120;2024-02-15T05:07:59;101000.44;;;5.51;100.00
71567;BME280;59403;47.456;19.120;2024-02-15T05:10:26;101006.53;;;5.51;100.00
71567;BME280;59403;47.456;19.120;2024-02-15T05:12:53;101006.53;;;5.51;100.00
71567;BME280;59403;47.456;19.120;2024-02-15T05:15:21;101005.69;;;5.51;100.00
71567;BME280;59403;47.456;19.120;2024-02-15T05:17:51;101012.75;;;5.50;100.00
71567;BME280;59403;47.456;19.120;2024-02-15T05:20:19;101008.44;;;5.49;100.00
71567;BME280;59403;47.456;19.120;2024-02-15T05:22:46;101014.53;;;5.50;100.00
71567;BME280;59403;47.456;19.120;2024-02-15T05:25:12;101012.75;;;5.50;100.00
71567;BME280;59403;47.456;19.120;2024-02-15T05:27:41;101010.94;;;5.51;100.00
71567;BME280;59403;47.456;19.120;2024-02-15T05:30:09;101016.19;;;5.51;100.00
71567;BME280;59403;47.456;19.120;2024-02-15T05:32:36;101013.59;;;5.51;100.00
71567;BME280;59403;47.456;19.120;2024-02-15T05:35:08;101010.13;;;5.50;100.00
71567;BME280;59403;47.456;19.120;2024-02-15T05:37:35;101017.41;;;5.47;100.00
71567;BME280;59403;47.456;19.120;2024-02-15T05:40:02;101015.59;;;5.47;100.00
71567;BME280;59403;47.456;19.120;2024-02-15T05:42:29;101017.28;;;5.48;100.00
71567;BME280;59403;47.456;19.120;2024-02-15T05:45:26;101005.81;;;5.49;100.00
71567;BME280;59403;47.456;19.120;2024-02-15T05:47:55;101011.06;;;5.49;100.00
71567;BME280;59403;47.456;19.120;2024-02-15T05:50:23;101018.03;;;5.50;100.00
71567;BME280;59403;47.456;19.120;2024-02-15T05:52:50;101019.69;;;5.51;100.00
71567;BME280;59403;47.456;19.120;2024-02-15T05:55:18;101022.31;;;5.51;100.00
71567;BME280;59403;47.456;19.120;2024-02-15T05:57:45;101027.56;;;5.51;100.00
71567;BME280;59403;47.456;19.120;2024-02-15T06:00:12;101026.81;;;5.49;100.00
71567;BME280;59403;47.456;19.120;2024-02-15T06:02:40;101036.41;;;5.50;100.00
71567;BME280;59403;47.456;19.120;2024-02-15T06:05:07;101030.19;;;5.51;100.00
71567;BME280;59403;47.456;19.120;2024-02-15T06:07:36;101038.06;;;5.51;100.00
71567;BME280;59403;47.456;19.120;2024-02-15T06:10:03;101038.06;;;5.51;100.00
71567;BME280;59403;47.456;19.120;2024-02-15T06:12:32;101047.72;;;5.51;100.00
71567;BME280;59403;47.456;19.120;2024-02-15T06:14:59;101045.03;;;5.52;100.00
71567;BME280;59403;47.456;19.120;2024-02-15T06:17:26;101043.22;;;5.53;100.00
71567;BME280;59403;47.456;19.120;2024-02-15T06:19:52;101045.72;;;5.54;100.00
71567;BME280;59403;47.456;19.120;2024-02-15T06:22:19;101040.37;;;5.56;100.00
71567;BME280;59403;47.456;19.120;2024-02-15T06:24:47;101043.72;;;5.58;100.00
71567;BME280;59403;47.456;19.120;2024-02-15T06:27:14;101049.81;;;5.58;100.00
71567;BME280;59403;47.456;19.120;2024-02-15T06:29:41;101055.81;;;5.60;100.00
71567;BME280;59403;47.456;19.120;2024-02-15T06:32:25;101059.16;;;5.62;100.00
71567;BME280;59403;47.456;19.120;2024-02-15T06:35:09;101061.69;;;5.64;100.00
71567;BME280;59403;47.456;19.120;2024-02-15T06:37:53;101063.25;;;5.66;100.00
71567;BME280;59403;47.456;19.120;2024-02-15T06:40:39;101057.91;;;5.68;100.00
71567;BME280;59403;47.456;19.120;2024-02-15T06:43:05;101053.47;;;5.68;100.00
71567;BME280;59403;47.456;19.120;2024-02-15T06:45:33;101067.34;;;5.70;100.00
71567;BME280;59403;47.456;19.120;2024-02-15T06:48:03;101060.19;;;5.72;100.00
71567;BME280;59403;47.456;19.120;2024-02-15T06:50:29;101064.47;;;5.73;100.00
71567;BME280;59403;47.456;19.120;2024-02-15T06:52:56;101069.66;;;5.75;100.00
71567;BME280;59403;47.456;19.120;2024-02-15T06:55:23;101067.72;;;5.77;100.00
71567;BME280;59403;47.456;19.120;2024-02-15T06:57:51;101080.06;;;5.76;100.00
71567;BME280;59403;47.456;19.120;2024-02-15T07:00:17;101074.56;;;5.79;100.00
71567;BME280;59403;47.456;19.120;2024-02-15T07:02:44;101082.25;;;5.83;100.00
71567;BME280;59403;47.456;19.120;2024-02-15T07:05:11;101077.94;;;5.82;100.00
71567;BME280;59403;47.456;19.120;2024-02-15T07:07:37;101076.06;;;5.84;100.00
71567;BME280;59403;47.456;19.120;2024-02-15T07:10:08;101077.63;;;5.86;100.00
71567;BME280;59403;47.456;19.120;2024-02-15T07:12:35;101078.25;;;5.90;100.00
71567;BME280;59403;47.456;19.120;2024-02-15T07:15:05;101076.34;;;5.92;100.00
71567;BME280;59403;47.456;19.120;2024-02-15T07:17:34;101079.81;;;5.92;100.00
71567;BME280;59403;47.456;19.120;2024-02-15T07:20:02;101084.72;;;5.97;100.00
71567;BME280;59403;47.456;19.120;2024-02-15T07:22:30;101073.19;;;5.99;100.00
71567;BME280;59403;47.456;19.120;2024-02-15T07:24:57;101078.31;;;6.01;100.00
71567;BME280;59403;47.456;19.120;2024-02-15T07:27:24;101084.31;;;6.03;100.00
71567;BME280;59403;47.456;19.120;2024-02-15T07:29:52;101084.69;;;6.09;100.00
71567;BME280;59403;47.456;19.120;2024-02-15T07:32:20;101090.87;;;6.08;100.00
71567;BME280;59403;47.456;19.120;2024-02-15T07:34:47;101082.78;;;6.11;100.00
71567;BME280;59403;47.456;19.120;2024-02-15T07:37:15;101091.50;;;6.12;100.00
71567;BME280;59403;47.456;19.120;2024-02-15T07:39:41;101096.56;;;6.15;100.00
71567;BME280;59403;47.456;19.120;2024-02-15T07:42:08;101090.22;;;6.17;100.00
71567;BME280;59403;47.456;19.120;2024-02-15T07:44:35;101091.91;;;6.18;100.00
71567;BME280;59403;47.456;19.120;2024-02-15T07:47:02;101090.84;;;6.21;100.00
71567;BME280;59403;47.456;19.120;2024-02-15T07:49:31;101086.31;;;6.23;100.00
71567;BME280;59403;47.456;19.120;2024-02-15T07:51:58;101093.34;;;6.22;100.00
71567;BME280;59403;47.456;19.120;2024-02-15T07:54:25;101085.97;;;6.27;100.00
71567;BME280;59403;47.456;19.120;2024-02-15T07:56:53;101091.94;;;6.29;100.00
71567;BME280;59403;47.456;19.120;2024-02-15T07:59:20;101087.53;;;6.30;100.00
71567;BME280;59403;47.456;19.120;2024-02-15T08:01:46;101089.12;;;6.32;100.00
71567;BME280;59403;47.456;19.120;2024-02-15T08:04:15;101091.50;;;6.35;100.00
71567;BME280;59403;47.456;19.120;2024-02-15T08:06:44;101092.38;;;6.36;100.00
71567;BME280;59403;47.456;19.120;2024-02-15T08:09:11;101090.44;;;6.38;100.00
71567;BME280;59403;47.456;19.120;2024-02-15T08:11:39;101091.16;;;6.40;100.00
71567;BME280;59403;47.456;19.120;2024-02-15T08:14:06;101092.84;;;6.41;100.00
71567;BME280;59403;47.456;19.120;2024-02-15T08:16:36;101092.75;;;6.42;100.00
71567;BME280;59403;47.456;19.120;2024-02-15T08:19:05;101090.72;;;6.46;100.00
71567;BME280;59403;47.456;19.120;2024-02-15T08:21:33;101083.56;;;6.48;100.00
71567;BME280;59403;47.456;19.120;2024-02-15T08:24:03;101091.09;;;6.52;100.00
71567;BME280;59403;47.456;19.120;2024-02-15T08:26:32;101085.59;;;6.55;100.00
71567;BME280;59403;47.456;19.120;2024-02-15T08:28:58;101081.91;;;6.58;100.00
71567;BME280;59403;47.456;19.120;2024-02-15T08:31:25;101085.16;;;6.61;100.00
71567;BME280;59403;47.456;19.120;2024-02-15T08:33:51;101083.00;;;6.66;100.00
71567;BME280;59403;47.456;19.120;2024-02-15T08:36:18;101084.47;;;6.70;100.00
71567;BME280;59403;47.456;19.120;2024-02-15T08:38:46;101080.87;;;6.71;100.00
71567;BME280;59403;47.456;19.120;2024-02-15T08:41:14;101084.00;;;6.76;100.00
71567;BME280;59403;47.456;19.120;2024-02-15T08:43:43;101086.50;;;6.78;99.92
71567;BME280;59403;47.456;19.120;2024-02-15T08:46:10;101094.06;;;6.82;99.94
71567;BME280;59403;47.456;19.120;2024-02-15T08:48:37;101088.69;;;6.84;99.33
71567;BME280;59403;47.456;19.120;2024-02-15T08:51:03;101086.78;;;6.86;100.00
71567;BME280;59403;47.456;19.120;2024-02-15T08:53:31;101084.50;;;6.93;100.00
71567;BME280;59403;47.456;19.120;2024-02-15T08:55:58;101089.53;;;6.96;100.00
71567;BME280;59403;47.456;19.120;2024-02-15T08:58:26;101090.03;;;7.01;100.00
71567;BME280;59403;47.456;19.120;2024-02-15T09:00:52;101094.72;;;7.08;98.65
71567;BME280;59403;47.456;19.120;2024-02-15T09:03:19;101099.75;;;7.11;99.37
71567;BME280;59403;47.456;19.120;2024-02-15T09:05:46;101089.69;;;7.16;99.33
71567;BME280;59403;47.456;19.120;2024-02-15T09:08:13;101093.03;;;7.18;99.01
71567;BME280;59403;47.456;19.120;2024-02-15T09:10:40;101095.56;;;7.20;98.05
71567;BME280;59403;47.456;19.120;2024-02-15T09:13:08;101086.47;;;7.24;98.22
71567;BME280;59403;47.456;19.120;2024-02-15T09:15:36;101098.47;;;7.28;98.07
71567;BME280;59403;47.456;19.120;2024-02-15T09:18:04;101100.72;;;7.32;97.95
71567;BME280;59403;47.456;19.120;2024-02-15T09:20:35;101094.25;;;7.36;95.93
71567;BME280;59403;47.456;19.120;2024-02-15T09:23:03;101087.78;;;7.40;96.99
71567;BME280;59403;47.456;19.120;2024-02-15T09:25:37;101098.81;;;7.45;97.02
71567;BME280;59403;47.456;19.120;2024-02-15T09:28:04;101095.44;;;7.54;94.98
71567;BME280;59403;47.456;19.120;2024-02-15T09:30:31;101100.38;;;7.59;96.14
71567;BME280;59403;47.456;19.120;2024-02-15T09:33:00;101104.31;;;7.64;96.07
71567;BME280;59403;47.456;19.120;2024-02-15T09:35:28;101104.06;;;7.67;95.02
71567;BME280;59403;47.456;19.120;2024-02-15T09:37:55;101105.41;;;7.73;94.42
71567;BME280;59403;47.456;19.120;2024-02-15T09:40:21;101105.41;;;7.73;93.92
71567;BME280;59403;47.456;19.120;2024-02-15T09:42:52;101102.97;;;7.70;92.80
71567;BME280;59403;47.456;19.120;2024-02-15T09:45:19;101110.53;;;7.74;93.08
71567;BME280;59403;47.456;19.120;2024-02-15T09:47:46;101113.41;;;7.82;93.61
71567;BME280;59403;47.456;19.120;2024-02-15T09:50:17;101105.84;;;7.89;94.18
71567;BME280;59403;47.456;19.120;2024-02-15T09:52:45;101104.37;;;7.96;94.54
71567;BME280;59403;47.456;19.120;2024-02-15T09:55:13;101096.34;;;7.97;93.14
71567;BME280;59403;47.456;19.120;2024-02-15T09:57:42;101099.56;;;8.01;92.68
71567;BME280;59403;47.456;19.120;2024-02-15T10:00:10;101106.88;;;8.08;93.75
71567;BME280;59403;47.456;19.120;2024-02-15T10:02:40;101101.25;;;8.02;92.19
71567;BME280;59403;47.456;19.120;2024-02-15T10:05:07;101106.03;;;8.08;93.80
71567;BME280;59403;47.456;19.120;2024-02-15T10:07:38;101109.03;;;8.15;93.00
71567;BME280;59403;47.456;19.120;2024-02-15T10:10:14;101104.34;;;8.18;93.44
71567;BME280;59403;47.456;19.120;2024-02-15T10:12:42;101103.12;;;8.22;92.27
71567;BME280;59403;47.456;19.120;2024-02-15T10:15:10;101100.97;;;8.27;90.80
71567;BME280;59403;47.456;19.120;2024-02-15T10:17:36;101100.75;;;8.30;90.93
71567;BME280;59403;47.456;19.120;2024-02-15T10:20:05;101098.09;;;8.30;90.19
71567;BME280;59403;47.456;19.120;2024-02-15T10:22:32;101098.81;;;8.32;89.59
71567;BME280;59403;47.456;19.120;2024-02-15T10:25:11;101095.66;;;8.38;90.10
71567;BME280;59403;47.456;19.120;2024-02-15T10:27:39;101102.38;;;8.42;89.34
71567;BME280;59403;47.456;19.120;2024-02-15T10:30:16;101096.72;;;8.47;89.29
71567;BME280;59403;47.456;19.120;2024-02-15T10:32:43;101091.75;;;8.53;89.20
71567;BME280;59403;47.456;19.120;2024-02-15T10:35:10;101087.66;;;8.60;89.08
71567;BME280;59403;47.456;19.120;2024-02-15T10:37:44;101090.41;;;8.59;88.13
71567;BME280;59403;47.456;19.120;2024-02-15T10:40:14;101096.72;;;8.67;89.03
71567;BME280;59403;47.456;19.120;2024-02-15T10:42:45;101089.16;;;8.74;89.96
71567;BME280;59403;47.456;19.120;2024-02-15T10:45:15;101086.56;;;8.83;88.52
71567;BME280;59403;47.456;19.120;2024-02-15T10:47:44;101086.75;;;8.91;88.81
71567;BME280;59403;47.456;19.120;2024-02-15T10:50:10;101089.28;;;8.93;87.72
71567;BME280;59403;47.456;19.120;2024-02-15T10:52:44;101083.34;;;9.00;87.39
71567;BME280;59403;47.456;19.120;2024-02-15T10:55:24;101080.69;;;9.00;87.49
71567;BME280;59403;47.456;19.120;2024-02-15T10:57:54;101082.56;;;9.09;87.72
71567;BME280;59403;47.456;19.120;2024-02-15T11:00:30;101085.78;;;9.13;86.61
71567;BME280;59403;47.456;19.120;2024-02-15T11:03:01;101080.75;;;9.10;85.69
71567;BME280;59403;47.456;19.120;2024-02-15T11:05:33;101083.56;;;9.18;85.89
71567;BME280;59403;47.456;19.120;2024-02-15T11:08:04;101086.78;;;9.22;86.17
71567;BME280;59403;47.456;19.120;2024-02-15T11:10:33;101086.06;;;9.10;85.40
71567;BME280;59403;47.456;19.120;2024-02-15T11:13:01;101080.66;;;9.21;85.43
71567;BME280;59403;47.456;19.120;2024-02-15T11:15:41;101078.22;;;9.29;85.26
71567;BME280;59403;47.456;19.120;2024-02-15T11:18:11;101080.31;;;9.35;85.54
71567;BME280;59403;47.456;19.120;2024-02-15T11:20:47;101078.38;;;9.37;84.35
71567;BME280;59403;47.456;19.120;2024-02-15T11:23:25;101079.59;;;9.33;83.23
71567;BME280;59403;47.456;19.120;2024-02-15T11:25:56;101079.22;;;9.38;83.88
71567;BME280;59403;47.456;19.120;2024-02-15T11:28:46;101077.94;;;9.32;83.55
71567;BME280;59403;47.456;19.120;2024-02-15T11:31:54;101073.38;;;9.34;83.24
71567;BME280;59403;47.456;19.120;2024-02-15T11:34:42;101074.50;;;9.41;82.31
71567;BME280;59403;47.456;19.120;2024-02-15T11:37:09;101076.03;;;9.44;81.91
71567;BME280;59403;47.456;19.120;2024-02-15T11:39:42;101075.53;;;9.50;80.87
71567;BME280;59403;47.456;19.120;2024-02-15T11:42:27;101081.37;;;9.53;80.21
71567;BME280;59403;47.456;19.120;2024-02-15T11:45:02;101069.69;;;9.56;80.42
71567;BME280;59403;47.456;19.120;2024-02-15T11:47:32;101070.81;;;9.63;79.71
71567;BME280;59403;47.456;19.120;2024-02-15T11:49:59;101069.31;;;9.70;79.67
71567;BME280;59403;47.456;19.120;2024-02-15T11:52:26;101063.63;;;9.74;79.91
71567;BME280;59403;47.456;19.120;2024-02-15T11:54:53;101059.72;;;9.78;79.85
71567;BME280;59403;47.456;19.120;2024-02-15T11:57:19;101059.47;;;9.81;77.79
71567;BME280;59403;47.456;19.120;2024-02-15T12:00:03;101058.78;;;9.89;78.25
71567;BME280;59403;47.456;19.120;2024-02-15T12:02:59;101058.94;;;9.97;78.36
71567;BME280;59403;47.456;19.120;2024-02-15T12:05:43;101058.22;;;9.85;77.24
71567;BME280;59403;47.456;19.120;2024-02-15T12:08:27;101061.28;;;9.90;77.11
71567;BME280;59403;47.456;19.120;2024-02-15T12:11:13;101053.91;;;9.84;77.71
71567;BME280;59403;47.456;19.120;2024-02-15T12:13:58;101051.00;;;9.97;77.04
71567;BME280;59403;47.456;19.120;2024-02-15T12:16:43;101046.13;;;9.92;75.19
71567;BME280;59403;47.456;19.120;2024-02-15T12:19:27;101050.87;;;9.98;75.69
71567;BME280;59403;47.456;19.120;2024-02-15T12:21:55;101053.91;;;9.94;74.31
71567;BME280;59403;47.456;19.120;2024-02-15T12:24:31;101046.53;;;9.97;74.78
71567;BME280;59403;47.456;19.120;2024-02-15T12:27:08;101042.22;;;9.96;74.79
71567;BME280;59403;47.456;19.120;2024-02-15T12:29:35;101044.59;;;9.99;72.58
71567;BME280;59403;47.456;19.120;2024-02-15T12:32:03;101050.03;;;9.88;72.51
71567;BME280;59403;47.456;19.120;2024-02-15T12:34:30;101039.88;;;9.93;73.80
71567;BME280;59403;47.456;19.120;2024-02-15T12:37:14;101037.37;;;10.01;73.52
71567;BME280;59403;47.456;19.120;2024-02-15T12:39:43;101030.41;;;10.00;72.72
71567;BME280;59403;47.456;19.120;2024-02-15T12:42:10;101033.63;;;10.04;72.89
71567;BME280;59403;47.456;19.120;2024-02-15T12:44:43;101025.28;;;10.08;72.79
71567;BME280;59403;47.456;19.120;2024-02-15T12:47:19;101024.19;;;10.11;73.84
71567;BME280;59403;47.456;19.120;2024-02-15T12:49:45;101034.78;;;10.11;74.99
71567;BME280;59403;47.456;19.120;2024-02-15T12:52:32;101026.94;;;10.09;74.96
71567;BME280;59403;47.456;19.120;2024-02-15T12:55:13;101022.50;;;10.10;74.47